Accueil
METAR-TAF:

METAR-TAF

Aéroports :

Los Mochis, Mexique

latitude: 25-41N, longitude: 109-05W, altitude: 4 m

Observation

Le bulletin a été fait il y a 1 heure et 7 minutes, à 20:40 UTC
Vent 20 kt de ouest/nord-ouest
Température 22°C
Humidité 25%
Pression 1014 hPa
Visibilité: 16.1 km

METAR: MMLM 222040Z 30020KT 10SM ST220 22/01 A2995 RMK SLP143 8/004

Heure: 14:47 (21:47 UTC)

Prévision

Le bulletin a été fait il y a 5 heures et 2 minutes, à 16:45 UTC
Prévision valable du 22 à 18 UTC au 23 à 18 UTC
Vent 20 kt de nord/nord-ouest
Visibilité: 10 km
Nuages épars à une hauteur de 22000 ft
A partir de 23 à 0400 UTC
Visibilité: 10 km
Ciel clair
A partir de 23 à 1600 UTC
Vent 10 kt de nord/nord-ouest
Visibilité: 10 km
Ciel clair

TAF: MMLM 221645Z 2218/2318 33020KT P6SM SCT220 FM23040034015KT P6SM SKC FM231600 34010KT P6SM SKC

Observations et prévisions météorologiques de plus de 4000 aéroports (messages METAR et TAF).

Les stations disponibles sont représentées par des disques jaunes et rouges sur la carte.

Passer la souris dessus pour voir le nom de la station.

Cliquer dessus pour voir les observations et prévisions météorologiques.

Pour changer de carte: cliquez sur les boutons verts avec une croix noire pour zoomer, sur le bouton vert avec un tiret pour effectuer un zoom arrière, ou sur les flèches vertes pour les cartes adjacentes.


METAR-TAF: